Time;durP1;ratioP1;P1;durP2;ratioP2;P2;SDS_P1;SDS_P2;PMS_P1;PMS_P2;Temp;Humidity;BMP_temperature;BMP_pressure;BME280_temperature;BME280_humidity;BME280_pressure;Samples;Min_cycle;Max_cycle;Signal;HPM_P1;HPM_P2
2023/09/25 00:00:18;;;;;;;;;;;13.60;99.90;;;;;;5049945;28;19964;-63
2023/09/25 00:02:43;;;;;;;;;;;13.60;99.90;;;;;;5065357;28;19928;-62
2023/09/25 00:05:09;;;;;;;;;;;13.60;99.90;;;;;;5050905;28;19960;-63
2023/09/25 00:07:34;;;;;;;;;;;13.60;99.90;;;;;;5052556;28;20223;-63
2023/09/25 00:10:00;;;;;;;;;;;13.60;99.90;;;;;;5034144;28;20007;-64
2023/09/25 00:12:25;;;;;;;;;;;13.50;99.90;;;;;;5033124;28;20009;-63
2023/09/25 00:14:51;;;;;;;;;;;13.60;99.90;;;;;;5051733;28;19931;-63
2023/09/25 00:17:17;;;;;;;;;;;13.50;99.90;;;;;;5051152;28;20464;-64
2023/09/25 00:19:42;;;;;;;;;;;13.60;99.90;;;;;;5064455;28;19971;-63
2023/09/25 00:22:08;;;;;;;;;;;13.60;99.90;;;;;;5050832;28;19928;-64
2023/09/25 00:24:33;;;;;;;;;;;13.60;99.90;;;;;;5052598;28;19928;-64
2023/09/25 00:26:59;;;;;;;;;;;13.50;99.90;;;;;;5034299;28;19986;-63
2023/09/25 00:29:24;;;;;;;;;;;13.50;99.90;;;;;;5065397;28;20384;-62
2023/09/25 00:31:50;;;;;;;;;;;13.50;99.90;;;;;;5082185;28;19928;-63
2023/09/25 00:34:15;;;;;;;;;;;13.60;99.90;;;;;;5081544;28;20440;-63
2023/09/25 00:36:41;;;;;;;;;;;13.60;99.90;;;;;;5049639;28;19928;-63
2023/09/25 00:39:07;;;;;;;;;;;13.60;99.90;;;;;;5051801;28;20224;-64
2023/09/25 00:41:33;;;;;;;;;;;13.70;99.90;;;;;;5051107;28;20320;-64
2023/09/25 00:43:59;;;;;;;;;;;13.70;99.90;;;;;;5082461;28;20435;-63
2023/09/25 00:46:24;;;;;;;;;;;13.70;99.90;;;;;;5050979;28;20157;-64
2023/09/25 00:48:50;;;;;;;;;;;13.70;99.90;;;;;;5065818;28;19924;-64
2023/09/25 00:51:16;;;;;;;;;;;13.70;99.90;;;;;;5052429;28;20015;-63
2023/09/25 00:53:45;;;;;;;;;;;13.70;99.90;;;;;;5051253;28;20146;-64
2023/09/25 00:56:10;;;;;;;;;;;13.70;99.90;;;;;;5065066;28;20172;-64
2023/09/25 00:58:36;;;;;;;;;;;13.70;99.90;;;;;;5052335;28;20197;-64
2023/09/25 01:01:02;;;;;;;;;;;13.70;99.90;;;;;;5051590;28;19939;-63
2023/09/25 01:03:30;;;;;;;;;;;13.70;99.90;;;;;;5052061;28;19924;-64
2023/09/25 01:05:56;;;;;;;;;;;13.70;99.90;;;;;;5049604;28;20120;-65
2023/09/25 01:08:21;;;;;;;;;;;13.60;99.90;;;;;;5050474;28;20163;-64
2023/09/25 01:10:49;;;;;;;;;;;13.60;99.90;;;;;;5081845;28;20339;-64
2023/09/25 01:13:15;;;;;;;;;;;13.60;99.90;;;;;;5081262;28;19928;-64
2023/09/25 01:15:40;;;;;;;;;;;13.60;99.90;;;;;;5049541;28;20392;-64
2023/09/25 01:18:07;;;;;;;;;;;13.50;99.90;;;;;;5016695;28;20048;-64
2023/09/25 01:20:33;;;;;;;;;;;13.50;99.90;;;;;;5065574;28;20238;-64
2023/09/25 01:22:59;;;;;;;;;;;13.50;99.90;;;;;;5050763;28;20771;-64
2023/09/25 01:25:24;;;;;;;;;;;13.50;99.90;;;;;;5082326;28;19924;-64
2023/09/25 01:27:50;;;;;;;;;;;13.50;99.90;;;;;;5051268;28;20019;-64
2023/09/25 01:30:17;;;;;;;;;;;13.40;99.90;;;;;;5036174;28;20382;-63
2023/09/25 01:32:44;;;;;;;;;;;13.40;99.90;;;;;;5084009;28;19936;-63
2023/09/25 01:35:13;;;;;;;;;;;13.40;99.90;;;;;;5053354;28;20026;-64
2023/09/25 01:37:39;;;;;;;;;;;13.30;99.90;;;;;;5085216;28;19982;-65
2023/09/25 01:40:08;;;;;;;;;;;13.30;99.90;;;;;;5056202;28;20047;-64
2023/09/25 01:42:34;;;;;;;;;;;13.30;99.90;;;;;;5053436;28;19936;-64
2023/09/25 01:44:59;;;;;;;;;;;13.30;99.90;;;;;;5054324;28;19924;-64
2023/09/25 01:47:25;;;;;;;;;;;13.30;99.90;;;;;;5068580;28;20123;-65
2023/09/25 01:49:51;;;;;;;;;;;13.30;99.90;;;;;;5035946;28;20155;-64
2023/09/25 01:52:17;;;;;;;;;;;13.30;99.90;;;;;;5084775;28;20369;-64
2023/09/25 01:54:43;;;;;;;;;;;13.30;99.90;;;;;;5054389;28;19924;-64
2023/09/25 01:57:08;;;;;;;;;;;13.30;99.90;;;;;;5053539;28;19924;-64
2023/09/25 01:59:34;;;;;;;;;;;13.30;99.90;;;;;;5055764;28;20119;-64
2023/09/25 02:01:59;;;;;;;;;;;13.30;99.90;;;;;;5086463;28;20443;-64
2023/09/25 02:04:25;;;;;;;;;;;13.30;99.90;;;;;;5055110;28;19920;-64
2023/09/25 02:06:51;;;;;;;;;;;13.20;99.90;;;;;;5054712;28;20011;-65
2023/09/25 02:09:16;;;;;;;;;;;13.20;99.90;;;;;;5054689;28;19931;-65
2023/09/25 02:11:42;;;;;;;;;;;13.20;99.90;;;;;;5069756;28;19929;-64
2023/09/25 02:14:07;;;;;;;;;;;13.20;99.90;;;;;;5053908;28;19935;-64
2023/09/25 02:16:33;;;;;;;;;;;13.20;99.90;;;;;;5055491;28;19920;-64
2023/09/25 02:18:58;;;;;;;;;;;13.20;99.90;;;;;;5055484;28;20128;-65
2023/09/25 02:21:24;;;;;;;;;;;13.20;99.90;;;;;;5056087;28;19930;-64
2023/09/25 02:23:50;;;;;;;;;;;13.10;99.90;;;;;;5054798;28;20147;-64
2023/09/25 02:26:15;;;;;;;;;;;13.20;99.90;;;;;;5056176;28;19935;-64
2023/09/25 02:28:41;;;;;;;;;;;13.10;99.90;;;;;;5038347;28;19924;-64
2023/09/25 02:31:07;;;;;;;;;;;13.20;99.90;;;;;;5086583;28;19928;-64
2023/09/25 02:33:33;;;;;;;;;;;13.20;99.90;;;;;;5086266;28;20214;-65
2023/09/25 02:36:02;;;;;;;;;;;13.10;99.90;;;;;;5086506;28;20182;-65
2023/09/25 02:38:28;;;;;;;;;;;13.10;99.90;;;;;;5055425;28;20126;-64
2023/09/25 02:40:53;;;;;;;;;;;13.10;99.90;;;;;;5067854;28;19924;-65
2023/09/25 02:43:19;;;;;;;;;;;13.10;99.90;;;;;;5085831;28;19979;-65
2023/09/25 02:45:44;;;;;;;;;;;13.00;99.90;;;;;;5055606;28;19990;-64
2023/09/25 02:48:10;;;;;;;;;;;13.00;99.90;;;;;;5085843;28;19932;-65
2023/09/25 02:50:35;;;;;;;;;;;13.00;99.90;;;;;;5085480;28;19924;-64
2023/09/25 02:53:01;;;;;;;;;;;12.90;99.90;;;;;;5054196;28;19928;-64
2023/09/25 02:55:26;;;;;;;;;;;12.90;99.90;;;;;;5027048;28;20215;-64
2023/09/25 02:57:52;;;;;;;;;;;12.90;99.90;;;;;;5054689;28;19924;-65
2023/09/25 03:00:17;;;;;;;;;;;12.80;99.90;;;;;;5054816;28;20290;-65
2023/09/25 03:02:43;;;;;;;;;;;12.80;99.90;;;;;;5084910;28;20194;-65
2023/09/25 03:05:11;;;;;;;;;;;12.80;99.90;;;;;;5068066;28;20192;-65
2023/09/25 03:07:37;;;;;;;;;;;12.70;99.90;;;;;;5085573;28;20209;-65
2023/09/25 03:10:03;;;;;;;;;;;12.80;99.90;;;;;;5052906;28;19924;-66
2023/09/25 03:12:29;;;;;;;;;;;12.80;99.90;;;;;;5053030;28;19951;-65
2023/09/25 03:14:54;;;;;;;;;;;12.80;99.90;;;;;;5055262;28;20139;-64
2023/09/25 03:17:20;;;;;;;;;;;12.70;99.90;;;;;;5067651;28;20208;-64
2023/09/25 03:19:46;;;;;;;;;;;12.70;99.90;;;;;;5053601;28;20180;-65
2023/09/25 03:22:11;;;;;;;;;;;12.70;99.90;;;;;;5053460;28;20611;-63
2023/09/25 03:24:37;;;;;;;;;;;12.70;99.90;;;;;;5054966;28;19924;-64
2023/09/25 03:27:02;;;;;;;;;;;12.60;99.90;;;;;;5053269;28;20007;-63
2023/09/25 03:29:28;;;;;;;;;;;12.60;99.90;;;;;;5027058;28;20243;-64
2023/09/25 03:31:53;;;;;;;;;;;12.60;99.90;;;;;;5053347;28;20371;-64
2023/09/25 03:34:20;;;;;;;;;;;12.50;99.90;;;;;;5036274;28;20442;-64
2023/09/25 03:36:45;;;;;;;;;;;12.60;99.90;;;;;;5053765;28;20011;-63
2023/09/25 03:39:11;;;;;;;;;;;12.60;99.90;;;;;;5052192;28;19997;-64
2023/09/25 03:41:36;;;;;;;;;;;12.60;99.90;;;;;;5084527;28;20433;-64
2023/09/25 03:44:02;;;;;;;;;;;12.60;99.90;;;;;;5083578;28;19925;-64
2023/09/25 03:46:28;;;;;;;;;;;12.60;99.90;;;;;;5084357;28;20019;-64
2023/09/25 03:48:53;;;;;;;;;;;12.60;99.90;;;;;;5051566;28;19935;-64
2023/09/25 03:51:19;;;;;;;;;;;12.60;99.90;;;;;;5083593;28;19928;-64
2023/09/25 03:53:45;;;;;;;;;;;12.60;99.90;;;;;;5035540;28;19932;-65
2023/09/25 03:56:10;;;;;;;;;;;12.60;99.90;;;;;;5052906;28;20145;-64
2023/09/25 03:58:36;;;;;;;;;;;12.60;99.90;;;;;;5050694;28;20267;-65
2023/09/25 04:01:01;;;;;;;;;;;12.60;99.90;;;;;;5066660;28;19978;-63
2023/09/25 04:03:27;;;;;;;;;;;12.60;99.90;;;;;;5054221;28;19974;-64
2023/09/25 04:05:53;;;;;;;;;;;12.60;99.90;;;;;;5052228;28;20019;-63
2023/09/25 04:08:18;;;;;;;;;;;12.60;99.90;;;;;;5050927;28;20362;-63
2023/09/25 04:10:44;;;;;;;;;;;12.50;99.90;;;;;;5083457;28;19959;-64
2023/09/25 04:13:10;;;;;;;;;;;12.50;99.90;;;;;;5052666;28;20001;-62
2023/09/25 04:15:37;;;;;;;;;;;12.50;99.90;;;;;;5083773;28;20424;-63
2023/09/25 04:18:06;;;;;;;;;;;12.50;99.90;;;;;;5051640;28;19925;-63
2023/09/25 04:20:32;;;;;;;;;;;12.50;99.90;;;;;;5082993;28;20023;-64
2023/09/25 04:22:58;;;;;;;;;;;12.50;99.90;;;;;;5052441;28;20007;-65
2023/09/25 04:25:24;;;;;;;;;;;12.50;99.90;;;;;;5052015;28;19954;-63
2023/09/25 04:27:52;;;;;;;;;;;12.50;99.90;;;;;;5052296;28;19967;-64
2023/09/25 04:30:19;;;;;;;;;;;12.50;99.90;;;;;;5052078;28;19954;-64
2023/09/25 04:32:46;;;;;;;;;;;12.50;99.90;;;;;;5050469;28;19929;-65
2023/09/25 04:35:12;;;;;;;;;;;12.50;99.90;;;;;;5051636;28;20140;-63
2023/09/25 04:37:38;;;;;;;;;;;12.50;99.90;;;;;;5066588;28;19928;-64
2023/09/25 04:40:21;;;;;;;;;;;12.50;99.90;;;;;;5055196;28;19984;-64
2023/09/25 04:42:47;;;;;;;;;;;12.50;99.90;;;;;;5026167;28;19924;-63
2023/09/25 04:45:13;;;;;;;;;;;12.50;99.90;;;;;;5035534;28;19951;-64
2023/09/25 04:47:42;;;;;;;;;;;12.50;99.90;;;;;;5050362;28;19925;-63
2023/09/25 04:50:09;;;;;;;;;;;12.60;99.90;;;;;;5057474;28;20433;-63
2023/09/25 04:52:35;;;;;;;;;;;12.60;99.90;;;;;;5051881;28;19997;-64
2023/09/25 04:55:05;;;;;;;;;;;12.50;99.90;;;;;;5083203;28;19932;-65
2023/09/25 04:57:30;;;;;;;;;;;12.50;99.90;;;;;;5051001;28;19924;-63
2023/09/25 04:59:56;;;;;;;;;;;12.60;99.90;;;;;;5065071;28;19982;-65
2023/09/25 05:02:22;;;;;;;;;;;12.60;99.90;;;;;;5052151;28;19935;-64
2023/09/25 05:04:47;;;;;;;;;;;12.60;99.90;;;;;;5054198;28;19924;-65
2023/09/25 05:07:13;;;;;;;;;;;12.50;99.90;;;;;;5054095;28;19931;-63
2023/09/25 05:09:38;;;;;;;;;;;12.60;99.90;;;;;;5071367;28;20019;-64
2023/09/25 05:12:04;;;;;;;;;;;12.60;99.90;;;;;;5020652;28;20310;-64
2023/09/25 05:14:30;;;;;;;;;;;12.60;99.90;;;;;;5086749;28;19928;-64
2023/09/25 05:16:55;;;;;;;;;;;12.60;99.90;;;;;;5070098;28;20091;-64
2023/09/25 05:19:21;;;;;;;;;;;12.60;99.90;;;;;;5054248;28;19985;-64
2023/09/25 05:21:47;;;;;;;;;;;12.50;99.90;;;;;;5038567;28;19924;-63
2023/09/25 05:24:12;;;;;;;;;;;12.60;99.90;;;;;;5086976;28;19925;-65
2023/09/25 05:26:38;;;;;;;;;;;12.50;99.90;;;;;;5054264;28;19924;-64
2023/09/25 05:29:04;;;;;;;;;;;12.40;99.90;;;;;;5086630;28;20220;-65
2023/09/25 05:31:29;;;;;;;;;;;12.40;99.90;;;;;;5086502;28;19991;-63
2023/09/25 05:33:55;;;;;;;;;;;12.30;99.90;;;;;;5086629;28;19975;-63
2023/09/25 05:36:20;;;;;;;;;;;12.30;99.90;;;;;;5055561;28;20422;-66
2023/09/25 05:38:46;;;;;;;;;;;12.20;99.90;;;;;;5053471;28;19925;-64
2023/09/25 05:41:14;;;;;;;;;;;12.20;99.90;;;;;;5086644;28;20208;-64
2023/09/25 05:43:39;;;;;;;;;;;12.20;99.90;;;;;;5055085;28;19925;-64
2023/09/25 05:46:05;;;;;;;;;;;12.20;99.90;;;;;;5053720;28;20283;-64
2023/09/25 05:48:30;;;;;;;;;;;12.30;99.90;;;;;;5085711;28;19931;-64
2023/09/25 05:50:56;;;;;;;;;;;12.20;99.90;;;;;;5054092;28;20410;-64
2023/09/25 05:53:25;;;;;;;;;;;12.20;99.90;;;;;;5085748;28;19933;-64
2023/09/25 05:55:51;;;;;;;;;;;12.20;99.90;;;;;;5055260;28;19925;-65
2023/09/25 05:58:16;;;;;;;;;;;12.20;99.90;;;;;;5085365;28;19924;-63
2023/09/25 06:00:46;;;;;;;;;;;12.20;99.90;;;;;;5052977;28;19932;-65
2023/09/25 06:03:12;;;;;;;;;;;12.20;99.90;;;;;;5085131;28;19994;-65
2023/09/25 06:05:38;;;;;;;;;;;12.20;99.90;;;;;;5086507;28;20390;-64
2023/09/25 06:08:04;;;;;;;;;;;12.30;99.90;;;;;;5085615;28;19971;-64
2023/09/25 06:10:29;;;;;;;;;;;12.30;99.90;;;;;;5069127;28;20429;-65
2023/09/25 06:12:55;;;;;;;;;;;12.20;99.90;;;;;;5053226;28;20002;-64
2023/09/25 06:15:23;;;;;;;;;;;12.30;99.90;;;;;;5052219;28;20218;-63
2023/09/25 06:17:49;;;;;;;;;;;12.30;99.90;;;;;;5054705;28;19954;-63
2023/09/25 06:20:20;;;;;;;;;;;12.30;99.90;;;;;;5054469;28;19921;-64
2023/09/25 06:22:46;;;;;;;;;;;12.40;99.90;;;;;;5052942;28;19931;-65
2023/09/25 06:25:16;;;;;;;;;;;12.40;99.90;;;;;;5084592;28;19967;-64
2023/09/25 06:27:44;;;;;;;;;;;12.40;99.90;;;;;;5053990;28;19928;-64
2023/09/25 06:30:10;;;;;;;;;;;12.50;99.90;;;;;;5069362;28;19924;-64
2023/09/25 06:32:36;;;;;;;;;;;12.50;99.90;;;;;;5085213;28;20235;-64
2023/09/25 06:35:02;;;;;;;;;;;12.60;99.90;;;;;;5068057;28;19921;-65
2023/09/25 06:37:29;;;;;;;;;;;12.70;99.90;;;;;;5036022;28;19936;-64
2023/09/25 06:39:54;;;;;;;;;;;12.70;99.90;;;;;;5086595;28;19971;-64
2023/09/25 06:42:20;;;;;;;;;;;12.80;99.90;;;;;;5052806;28;20279;-64
2023/09/25 06:44:46;;;;;;;;;;;12.90;99.90;;;;;;5087799;28;19928;-64
2023/09/25 06:47:11;;;;;;;;;;;12.90;99.90;;;;;;5056866;28;20453;-63
2023/09/25 06:49:37;;;;;;;;;;;12.90;99.90;;;;;;5055850;28;19924;-64
2023/09/25 06:52:03;;;;;;;;;;;13.00;99.90;;;;;;5054155;28;20216;-65
2023/09/25 06:54:28;;;;;;;;;;;13.00;99.90;;;;;;5086796;28;20417;-64
2023/09/25 06:56:54;;;;;;;;;;;13.10;99.90;;;;;;5054278;28;19924;-65
2023/09/25 06:59:19;;;;;;;;;;;13.20;99.90;;;;;;5086738;28;20081;-62
2023/09/25 07:01:45;;;;;;;;;;;13.20;99.90;;;;;;5055507;28;20039;-64
2023/09/25 07:04:10;;;;;;;;;;;13.30;99.90;;;;;;5053240;28;19978;-64
2023/09/25 07:06:36;;;;;;;;;;;13.30;99.90;;;;;;5055255;28;20381;-65
2023/09/25 07:09:02;;;;;;;;;;;13.40;99.90;;;;;;5052372;28;19924;-64
2023/09/25 07:11:29;;;;;;;;;;;13.40;99.90;;;;;;5065399;28;20151;-64
2023/09/25 07:13:55;;;;;;;;;;;13.40;99.90;;;;;;5053589;28;19929;-64
2023/09/25 07:16:20;;;;;;;;;;;13.50;99.90;;;;;;5051681;28;19925;-63
2023/09/25 07:18:47;;;;;;;;;;;13.50;99.90;;;;;;5051691;28;19924;-64
2023/09/25 07:21:15;;;;;;;;;;;13.50;99.90;;;;;;5054063;28;19928;-64
2023/09/25 07:23:40;;;;;;;;;;;13.50;99.90;;;;;;5085654;28;20015;-65
2023/09/25 07:26:09;;;;;;;;;;;13.60;99.90;;;;;;5053161;28;20011;-65
2023/09/25 07:28:36;;;;;;;;;;;13.60;99.90;;;;;;5084190;28;19928;-65
2023/09/25 07:31:02;;;;;;;;;;;13.60;99.90;;;;;;5053178;28;20429;-65
2023/09/25 07:33:28;;;;;;;;;;;13.70;99.90;;;;;;5030170;28;19928;-64
2023/09/25 07:35:54;;;;;;;;;;;13.80;99.90;;;;;;5083702;28;20384;-64
2023/09/25 07:38:19;;;;;;;;;;;13.80;99.90;;;;;;5082826;28;19924;-64
2023/09/25 07:40:46;;;;;;;;;;;13.90;99.90;;;;;;5052573;28;19994;-64
2023/09/25 07:43:11;;;;;;;;;;;13.90;99.90;;;;;;5034645;28;20742;-63
2023/09/25 07:45:38;;;;;;;;;;;14.00;99.90;;;;;;5053786;28;20220;-65
2023/09/25 07:48:05;;;;;;;;;;;14.10;99.90;;;;;;5067271;28;19932;-65
2023/09/25 07:50:31;;;;;;;;;;;14.20;99.90;;;;;;5067187;28;19924;-65
2023/09/25 07:52:58;;;;;;;;;;;14.20;99.90;;;;;;5083941;28;20298;-65
2023/09/25 07:55:24;;;;;;;;;;;14.30;99.90;;;;;;5053373;28;20459;-66
2023/09/25 07:57:50;;;;;;;;;;;14.30;99.90;;;;;;5053815;28;20242;-65
2023/09/25 08:02:47;;;;;;;;;;;14.50;99.90;;;;;;5054879;28;19924;-65
2023/09/25 08:05:14;;;;;;;;;;;14.60;99.90;;;;;;5036571;28;20406;-66
2023/09/25 08:07:39;;;;;;;;;;;14.80;99.90;;;;;;5069805;28;20263;-65
2023/09/25 08:10:05;;;;;;;;;;;14.90;99.90;;;;;;5086526;28;20202;-65
2023/09/25 08:12:31;;;;;;;;;;;15.10;99.90;;;;;;5053180;28;20035;-65
2023/09/25 08:14:57;;;;;;;;;;;15.30;99.90;;;;;;5055037;28;20398;-65
2023/09/25 08:17:24;;;;;;;;;;;15.60;99.90;;;;;;5053305;28;19997;-64
2023/09/25 08:19:53;;;;;;;;;;;15.60;99.90;;;;;;5086905;28;20421;-65
2023/09/25 08:22:18;;;;;;;;;;;15.70;99.90;;;;;;5036744;28;19924;-64
2023/09/25 08:24:44;;;;;;;;;;;15.80;99.90;;;;;;5052955;28;19966;-65
2023/09/25 08:27:09;;;;;;;;;;;15.80;99.90;;;;;;5053991;28;19920;-63
2023/09/25 08:29:35;;;;;;;;;;;15.80;99.90;;;;;;5053621;28;20422;-64
2023/09/25 08:32:01;;;;;;;;;;;15.80;99.90;;;;;;5052757;28;20329;-64
2023/09/25 08:34:26;;;;;;;;;;;15.80;99.90;;;;;;5085751;28;20023;-64
2023/09/25 08:36:52;;;;;;;;;;;15.80;99.90;;;;;;5054330;28;19925;-65
2023/09/25 08:39:18;;;;;;;;;;;15.90;99.90;;;;;;5053656;28;20310;-65
2023/09/25 08:41:43;;;;;;;;;;;15.90;99.90;;;;;;5091041;28;19925;-64
2023/09/25 08:44:09;;;;;;;;;;;16.00;99.90;;;;;;5057362;28;20406;-65
2023/09/25 08:46:35;;;;;;;;;;;16.00;99.90;;;;;;5090670;28;19931;-64
2023/09/25 08:49:02;;;;;;;;;;;16.10;99.90;;;;;;5056482;28;19924;-64
2023/09/25 08:51:34;;;;;;;;;;;16.20;99.90;;;;;;5090648;28;19951;-65
2023/09/25 08:54:00;;;;;;;;;;;16.20;99.90;;;;;;5056489;28;20616;-64
2023/09/25 08:56:25;;;;;;;;;;;16.30;96.10;;;;;;5074241;28;20165;-65
2023/09/25 08:58:51;;;;;;;;;;;16.30;99.90;;;;;;5058788;28;20263;-64
2023/09/25 09:01:18;;;;;;;;;;;16.50;99.90;;;;;;5073939;28;20691;-65
2023/09/25 09:03:44;;;;;;;;;;;16.50;99.20;;;;;;5056359;28;20413;-63
2023/09/25 09:06:09;;;;;;;;;;;16.80;96.50;;;;;;5056351;28;20414;-65
2023/09/25 09:08:36;;;;;;;;;;;17.20;92.80;;;;;;5072463;28;19925;-65
2023/09/25 09:11:11;;;;;;;;;;;17.50;67.50;;;;;;5055944;28;19931;-64
2023/09/25 09:13:43;;;;;;;;;;;17.80;79.20;;;;;;5056854;28;19932;-65
2023/09/25 09:16:13;;;;;;;;;;;17.80;77.40;;;;;;5056137;28;20435;-65
2023/09/25 09:18:39;;;;;;;;;;;17.60;51.10;;;;;;5057748;28;19928;-65
2023/09/25 09:21:04;;;;;;;;;;;17.50;65.20;;;;;;5056223;28;20342;-65
2023/09/25 09:23:40;;;;;;;;;;;17.40;69.70;;;;;;5039608;28;20101;-65
2023/09/25 09:26:07;;;;;;;;;;;17.30;79.70;;;;;;5057167;28;19929;-65
2023/09/25 09:28:33;;;;;;;;;;;17.20;61.70;;;;;;5055161;28;19935;-65
2023/09/25 09:30:59;;;;;;;;;;;17.10;78.00;;;;;;5057012;28;20569;-65
2023/09/25 09:33:29;;;;;;;;;;;17.10;76.70;;;;;;5072227;28;20462;-65
2023/09/25 09:35:55;;;;;;;;;;;17.10;73.00;;;;;;5090477;28;20422;-64
2023/09/25 09:38:21;;;;;;;;;;;17.30;72.60;;;;;;5057438;28;19970;-65
2023/09/25 09:40:48;;;;;;;;;;;17.50;77.30;;;;;;5071915;28;19999;-63
2023/09/25 09:43:13;;;;;;;;;;;17.80;78.80;;;;;;5088925;28;20178;-65
2023/09/25 09:45:39;;;;;;;;;;;18.20;65.10;;;;;;5089466;28;20112;-64
2023/09/25 09:48:06;;;;;;;;;;;18.50;39.00;;;;;;5089630;28;20220;-64
2023/09/25 09:50:33;;;;;;;;;;;18.80;59.10;;;;;;5090136;28;19928;-65
2023/09/25 09:52:59;;;;;;;;;;;19.10;15.80;;;;;;5088702;28;19990;-65
2023/09/25 09:55:27;;;;;;;;;;;19.50;16.10;;;;;;5054937;28;20270;-65
2023/09/25 09:57:54;;;;;;;;;;;19.90;6.60;;;;;;5055298;28;20338;-64
2023/09/25 10:00:20;;;;;;;;;;;19.90;1.00;;;;;;5057471;28;19924;-63
2023/09/25 10:02:46;;;;;;;;;;;19.90;1.00;;;;;;5088385;28;20437;-66
2023/09/25 10:05:17;;;;;;;;;;;19.80;1.00;;;;;;5088438;28;19931;-64
2023/09/25 10:08:05;;;;;;;;;;;20.00;1.00;;;;;;5054533;28;19931;-63
2023/09/25 10:10:32;;;;;;;;;;;20.10;1.00;;;;;;5051107;28;19985;-64
2023/09/25 10:12:57;;;;;;;;;;;20.10;1.00;;;;;;5055892;28;19928;-65
2023/09/25 10:15:25;;;;;;;;;;;20.50;1.00;;;;;;5056473;28;19931;-64
2023/09/25 10:17:52;;;;;;;;;;;20.50;1.00;;;;;;5088122;28;20033;-63
2023/09/25 10:20:30;;;;;;;;;;;20.40;1.00;;;;;;5072163;28;19971;-65
2023/09/25 10:23:31;;;;;;;;;;;20.30;1.00;;;;;;5089187;28;20341;-63
2023/09/25 10:26:02;;;;;;;;;;;20.50;1.00;;;;;;5036792;28;19924;-65
2023/09/25 10:28:27;;;;;;;;;;;20.60;1.00;;;;;;5050799;28;19924;-65
2023/09/25 10:31:00;;;;;;;;;;;20.50;1.00;;;;;;5081487;28;20285;-64
2023/09/25 10:33:31;;;;;;;;;;;20.50;1.00;;;;;;5050909;28;20039;-65
2023/09/25 10:35:59;;;;;;;;;;;20.50;1.00;;;;;;5050770;28;20167;-66
2023/09/25 10:38:28;;;;;;;;;;;20.60;1.00;;;;;;5050770;28;19935;-65
2023/09/25 10:40:55;;;;;;;;;;;20.70;1.00;;;;;;5083848;28;20188;-65
2023/09/25 10:43:24;;;;;;;;;;;20.90;1.00;;;;;;5051851;28;19935;-66
2023/09/25 10:45:52;;;;;;;;;;;20.90;1.00;;;;;;5052595;28;19979;-66
2023/09/25 10:48:18;;;;;;;;;;;21.00;1.00;;;;;;5052443;28;20631;-64
2023/09/25 10:50:44;;;;;;;;;;;21.20;1.00;;;;;;5050602;28;19931;-63
2023/09/25 10:53:10;;;;;;;;;;;20.90;1.00;;;;;;5052205;28;19928;-66
2023/09/25 10:55:36;;;;;;;;;;;20.90;1.00;;;;;;5065631;28;20007;-66
2023/09/25 10:58:03;;;;;;;;;;;20.60;1.00;;;;;;5057156;28;20321;-65
2023/09/25 11:00:29;;;;;;;;;;;20.60;1.00;;;;;;5050851;28;19925;-66
2023/09/25 11:02:55;;;;;;;;;;;20.60;1.00;;;;;;5050139;28;19947;-65
2023/09/25 11:05:21;;;;;;;;;;;20.70;1.00;;;;;;5067130;28;19936;-66
2023/09/25 11:07:46;;;;;;;;;;;20.90;1.00;;;;;;5050626;28;19924;-66
2023/09/25 11:10:13;;;;;;;;;;;21.00;1.00;;;;;;5050576;28;19924;-65
2023/09/25 11:12:39;;;;;;;;;;;21.10;1.00;;;;;;5050393;28;19920;-66
2023/09/25 11:15:11;;;;;;;;;;;21.20;1.00;;;;;;5051637;28;19955;-66
2023/09/25 11:17:40;;;;;;;;;;;21.70;1.00;;;;;;5050649;28;20463;-66
2023/09/25 11:20:18;;;;;;;;;;;21.90;1.00;;;;;;5084353;28;20037;-65
2023/09/25 11:22:46;;;;;;;;;;;21.80;1.00;;;;;;5084160;28;20295;-66
2023/09/25 11:25:15;;;;;;;;;;;22.00;1.00;;;;;;5050901;28;19924;-65
2023/09/25 11:27:50;;;;;;;;;;;22.10;1.00;;;;;;5052195;28;19935;-65
2023/09/25 11:30:15;;;;;;;;;;;21.80;1.00;;;;;;5082527;28;20282;-66
2023/09/25 11:32:44;;;;;;;;;;;21.90;1.00;;;;;;5050251;28;19928;-65
2023/09/25 11:35:13;;;;;;;;;;;22.00;1.00;;;;;;5051127;28;19921;-65
2023/09/25 11:37:59;;;;;;;;;;;22.40;1.00;;;;;;5084323;28;19988;-64
2023/09/25 11:40:28;;;;;;;;;;;22.60;1.00;;;;;;5051386;28;19973;-65
2023/09/25 11:42:54;;;;;;;;;;;22.70;1.00;;;;;;5051681;28;19924;-66
2023/09/25 11:45:20;;;;;;;;;;;22.90;1.00;;;;;;5032983;28;20025;-65
2023/09/25 11:47:45;;;;;;;;;;;23.20;1.00;;;;;;5048934;28;19928;-64
2023/09/25 11:50:13;;;;;;;;;;;23.00;1.00;;;;;;5048604;28;19935;-65
2023/09/25 11:52:43;;;;;;;;;;;23.20;1.00;;;;;;5082104;28;20393;-65
2023/09/25 11:55:11;;;;;;;;;;;23.20;1.00;;;;;;5065496;28;20113;-64
2023/09/25 11:57:37;;;;;;;;;;;23.40;1.00;;;;;;5049178;28;20444;-65
2023/09/25 12:00:06;;;;;;;;;;;23.80;1.00;;;;;;5049499;28;20168;-65
2023/09/25 12:02:32;;;;;;;;;;;24.20;1.00;;;;;;5049506;28;19934;-64
2023/09/25 12:04:58;;;;;;;;;;;24.20;1.00;;;;;;5052070;28;19924;-65
2023/09/25 12:07:25;;;;;;;;;;;24.00;1.00;;;;;;5049129;28;20023;-66
2023/09/25 12:09:51;;;;;;;;;;;23.80;1.00;;;;;;5082689;28;19956;-65
2023/09/25 12:12:17;;;;;;;;;;;23.90;1.00;;;;;;5051463;28;19924;-64
2023/09/25 12:14:43;;;;;;;;;;;23.30;1.00;;;;;;5049420;28;20311;-65
2023/09/25 12:17:10;;;;;;;;;;;22.90;1.00;;;;;;5049638;28;19932;-65
2023/09/25 12:19:36;;;;;;;;;;;22.30;1.00;;;;;;5033077;28;20250;-65
2023/09/25 12:22:02;;;;;;;;;;;22.00;1.00;;;;;;5016783;28;19924;-65
2023/09/25 12:24:28;;;;;;;;;;;21.80;1.00;;;;;;5033031;28;20345;-65
2023/09/25 12:26:53;;;;;;;;;;;21.60;1.00;;;;;;5050483;28;19931;-66
2023/09/25 12:29:19;;;;;;;;;;;21.50;1.00;;;;;;5082470;28;19932;-65
2023/09/25 12:31:44;;;;;;;;;;;21.60;1.00;;;;;;5049391;28;20410;-66
2023/09/25 12:34:10;;;;;;;;;;;21.60;1.00;;;;;;5050790;28;20629;-66
2023/09/25 12:36:36;;;;;;;;;;;21.80;1.00;;;;;;5050724;28;19928;-65
2023/09/25 12:39:01;;;;;;;;;;;21.60;1.00;;;;;;5049654;28;20221;-65
2023/09/25 12:41:27;;;;;;;;;;;21.50;1.00;;;;;;5020784;28;20027;-66
2023/09/25 12:43:53;;;;;;;;;;;21.40;1.00;;;;;;5049258;28;19985;-67
2023/09/25 12:46:18;;;;;;;;;;;21.20;1.00;;;;;;5049031;28;19928;-66
2023/09/25 12:48:44;;;;;;;;;;;21.30;1.00;;;;;;5050066;28;19924;-65
2023/09/25 12:51:09;;;;;;;;;;;21.20;1.00;;;;;;5051276;28;19924;-66
2023/09/25 12:53:35;;;;;;;;;;;21.30;1.00;;;;;;5049005;28;20179;-66
2023/09/25 12:56:01;;;;;;;;;;;21.40;1.00;;;;;;5049431;28;19986;-66
2023/09/25 12:58:26;;;;;;;;;;;21.30;1.00;;;;;;5066378;28;20075;-66
2023/09/25 13:00:52;;;;;;;;;;;21.30;1.00;;;;;;5049761;28;19989;-65
2023/09/25 13:03:17;;;;;;;;;;;21.60;1.00;;;;;;5064392;28;19929;-66
2023/09/25 13:05:44;;;;;;;;;;;21.70;1.00;;;;;;5049351;28;19974;-67
2023/09/25 13:08:11;;;;;;;;;;;22.10;1.00;;;;;;5032316;28;19995;-66
2023/09/25 13:10:36;;;;;;;;;;;22.10;1.00;;;;;;5080814;28;20010;-66
2023/09/25 13:13:02;;;;;;;;;;;21.80;1.00;;;;;;5051786;28;19981;-66
2023/09/25 13:15:28;;;;;;;;;;;21.80;1.00;;;;;;5081934;28;19936;-66
2023/09/25 13:17:54;;;;;;;;;;;21.60;1.00;;;;;;5049708;28;19928;-67
2023/09/25 13:20:19;;;;;;;;;;;21.50;1.00;;;;;;5063675;28;20004;-66
2023/09/25 13:22:45;;;;;;;;;;;21.60;1.00;;;;;;5026433;28;19932;-66
2023/09/25 13:25:11;;;;;;;;;;;21.60;1.00;;;;;;5052416;28;19931;-65
2023/09/25 13:27:42;;;;;;;;;;;21.70;1.00;;;;;;5053883;28;20011;-66
2023/09/25 13:30:17;;;;;;;;;;;21.70;1.00;;;;;;5052559;28;20349;-66
2023/09/25 13:32:42;;;;;;;;;;;22.30;1.00;;;;;;5052645;28;20534;-65
2023/09/25 13:35:09;;;;;;;;;;;22.90;1.00;;;;;;5085245;28;20195;-65
2023/09/25 13:37:35;;;;;;;;;;;22.60;1.00;;;;;;5083882;28;20437;-64
2023/09/25 13:40:01;;;;;;;;;;;22.40;1.00;;;;;;5052538;28;19925;-65
2023/09/25 13:42:27;;;;;;;;;;;21.90;1.00;;;;;;5052175;28;20373;-65
2023/09/25 13:44:52;;;;;;;;;;;21.90;1.00;;;;;;5035382;28;19931;-64
2023/09/25 13:47:18;;;;;;;;;;;21.60;1.00;;;;;;5036287;28;20040;-65
2023/09/25 13:49:46;;;;;;;;;;;21.50;1.00;;;;;;5066709;28;20056;-65
2023/09/25 13:52:12;;;;;;;;;;;21.30;1.00;;;;;;5051715;28;19932;-64
2023/09/25 13:54:38;;;;;;;;;;;21.20;1.00;;;;;;5066696;28;19924;-65
2023/09/25 13:57:03;;;;;;;;;;;21.20;1.00;;;;;;5051577;28;19974;-66
2023/09/25 13:59:29;;;;;;;;;;;21.30;1.00;;;;;;5052656;28;20043;-66
2023/09/25 14:01:55;;;;;;;;;;;21.30;1.00;;;;;;5067118;28;19921;-66
2023/09/25 14:04:20;;;;;;;;;;;21.80;1.00;;;;;;5052444;28;19982;-67
2023/09/25 14:06:46;;;;;;;;;;;22.90;1.00;;;;;;5052030;28;19931;-66
2023/09/25 14:09:12;;;;;;;;;;;23.90;1.00;;;;;;5051795;28;20153;-68
2023/09/25 14:11:37;;;;;;;;;;;24.60;1.00;;;;;;5052957;28;20370;-67
2023/09/25 14:14:04;;;;;;;;;;;25.00;1.00;;;;;;5050573;28;19925;-67
2023/09/25 14:16:30;;;;;;;;;;;24.40;1.00;;;;;;5052094;28;20850;-66
2023/09/25 14:18:55;;;;;;;;;;;24.40;1.00;;;;;;5068215;28;19928;-67